Time;durP1;ratioP1;P1;durP2;ratioP2;P2;SDS_P1;SDS_P2;PMS_P1;PMS_P2;Temp;Humidity;BMP_temperature;BMP_pressure;BME280_temperature;BME280_humidity;BME280_pressure;Samples;Min_cycle;Max_cycle;Signal;HPM_P1;HPM_P2
2023/12/28 15:41:54;;;;;;;3.78;1.88;;;9.30;99.90;;;;;;6206092;22;1302526;-78
2023/12/28 15:44:19;;;;;;;9.02;2.50;;;9.20;99.90;;;;;;6267686;22;20455;-78
2023/12/28 15:46:48;;;;;;;4.63;2.20;;;9.20;99.90;;;;;;6266561;22;20333;-76
2023/12/28 15:49:14;;;;;;;5.72;2.50;;;9.20;99.90;;;;;;6262823;22;20007;-79
2023/12/28 15:51:39;;;;;;;7.25;2.60;;;9.20;99.90;;;;;;6258615;22;20004;-78
2023/12/28 15:54:05;;;;;;;4.32;2.47;;;9.20;99.90;;;;;;6263267;22;20007;-78
2023/12/28 15:56:30;;;;;;;6.70;2.72;;;9.20;99.90;;;;;;6263463;22;19996;-78
2023/12/28 15:58:56;;;;;;;7.10;2.58;;;9.20;99.90;;;;;;6238511;22;20387;-79
2023/12/28 16:01:21;;;;;;;4.43;2.08;;;9.20;99.90;;;;;;6262909;22;20095;-79
2023/12/28 16:03:47;;;;;;;8.40;2.15;;;9.20;99.90;;;;;;6267045;22;20015;-78
2023/12/28 16:06:13;;;;;;;7.40;3.20;;;9.20;99.90;;;;;;6262665;22;20444;-82
2023/12/28 16:09:06;;;;;;;6.65;2.13;;;9.20;99.90;;;;;;5109652;27;20402;-82
2023/12/28 16:11:36;;;;;;;4.35;2.35;;;9.20;99.90;;;;;;5108259;27;20125;-79
2023/12/28 16:14:02;;;;;;;7.45;2.22;;;9.20;99.90;;;;;;5098510;28;20031;-80
2023/12/28 16:16:31;;;;;;;5.45;2.22;;;9.20;99.90;;;;;;5113356;27;20412;-86
2023/12/28 16:18:57;;;;;;;7.88;2.10;;;9.20;99.90;;;;;;5115761;27;20034;-78
2023/12/28 16:21:23;;;;;;;8.70;2.10;;;9.20;99.90;;;;;;5099156;27;20247;-79
2023/12/28 16:23:49;;;;;;;7.70;2.78;;;9.20;99.90;;;;;;5109057;28;20054;-85
2023/12/28 16:26:17;;;;;;;11.10;2.40;;;9.10;99.90;;;;;;5103929;28;20070;-80
2023/12/28 16:28:42;;;;;;;7.40;2.15;;;9.10;99.90;;;;;;5118980;27;20032;-81
2023/12/28 16:31:08;;;;;;;8.05;2.60;;;9.20;99.90;;;;;;5101535;27;20149;-79
2023/12/28 16:33:33;;;;;;;6.93;2.38;;;9.20;99.90;;;;;;5105624;28;20019;-82
2023/12/28 16:36:00;;;;;;;9.15;2.60;;;9.20;99.90;;;;;;5101715;27;20077;-79
2023/12/28 16:38:26;;;;;;;7.57;2.45;;;9.20;99.90;;;;;;5122142;27;20027;-77
2023/12/28 16:40:53;;;;;;;10.07;2.60;;;9.20;99.90;;;;;;5108954;27;20450;-80
2023/12/28 16:43:19;;;;;;;7.00;2.50;;;9.20;99.90;;;;;;5108289;28;20044;-79
2023/12/28 16:45:45;;;;;;;8.20;2.33;;;9.20;99.90;;;;;;5103509;28;20134;-77
2023/12/28 16:48:10;;;;;;;7.90;2.50;;;9.20;99.90;;;;;;5114010;27;20061;-77
2023/12/28 16:50:40;;;;;;;9.70;2.67;;;9.20;99.90;;;;;;5099178;27;20482;-83
2023/12/28 16:53:05;;;;;;;7.95;2.20;;;9.20;99.90;;;;;;5103095;27;20480;-77
2023/12/28 16:55:31;;;;;;;6.47;2.03;;;9.10;99.90;;;;;;5099259;28;20028;-79
2023/12/28 16:57:57;;;;;;;7.43;2.60;;;9.10;99.90;;;;;;5113454;28;20528;-79
2023/12/28 17:00:23;;;;;;;7.13;2.97;;;9.10;99.90;;;;;;5110119;27;20026;-84
2023/12/28 17:02:49;;;;;;;6.68;2.13;;;9.00;99.90;;;;;;5117003;27;20028;-83
2023/12/28 17:05:18;;;;;;;8.25;2.67;;;9.00;99.90;;;;;;5098781;27;20035;-80
2023/12/28 17:07:44;;;;;;;11.73;2.75;;;9.00;99.90;;;;;;5099762;27;20035;-81
2023/12/28 17:10:10;;;;;;;10.27;2.58;;;9.00;99.90;;;;;;5113505;27;20060;-79
2023/12/28 17:12:41;;;;;;;6.65;2.30;;;9.00;99.90;;;;;;5103565;28;20378;-84
2023/12/28 17:15:09;;;;;;;5.35;2.10;;;9.00;99.90;;;;;;5113056;28;20387;-81
2023/12/28 17:17:36;;;;;;;6.20;2.03;;;9.00;99.90;;;;;;5110042;28;20457;-86
2023/12/28 17:20:05;;;;;;;11.13;2.88;;;9.00;99.90;;;;;;5083128;28;20028;-85
2023/12/28 17:22:47;;;;;;;8.00;2.53;;;8.90;99.90;;;;;;5092960;28;20023;-79
2023/12/28 17:25:31;;;;;;;18.27;2.97;;;9.00;99.90;;;;;;5086693;28;20036;-82
2023/12/28 17:28:04;;;;;;;13.52;2.50;;;8.90;99.90;;;;;;5083650;28;20097;-80
2023/12/28 17:30:31;;;;;;;6.68;2.20;;;8.90;99.90;;;;;;5085240;28;20043;-82
2023/12/28 17:33:02;;;;;;;5.90;2.45;;;8.90;99.90;;;;;;5087912;28;20036;-80
2023/12/28 17:35:29;;;;;;;8.32;2.30;;;8.90;99.90;;;;;;5098029;28;20032;-84
2023/12/28 17:38:04;;;;;;;5.82;2.05;;;8.90;99.90;;;;;;5107879;28;20040;-85
2023/12/28 17:40:30;;;;;;;13.20;2.80;;;8.90;99.90;;;;;;5084687;28;20026;-80
2023/12/28 17:43:09;;;;;;;8.02;2.30;;;8.90;99.90;;;;;;5098727;28;20588;-79
2023/12/28 17:45:48;;;;;;;9.18;2.65;;;8.90;99.90;;;;;;5096316;28;20030;-82
2023/12/28 17:48:21;;;;;;;12.55;2.55;;;8.90;99.90;;;;;;5088402;28;20093;-82
2023/12/28 17:50:50;;;;;;;9.60;2.67;;;8.90;99.90;;;;;;5085554;28;20351;-79
2023/12/28 17:53:15;;;;;;;6.35;2.38;;;8.80;99.90;;;;;;5083117;28;20024;-80
2023/12/28 17:55:41;;;;;;;4.82;2.22;;;8.80;99.90;;;;;;5090737;28;20016;-78
2023/12/28 17:58:07;;;;;;;9.27;2.42;;;8.90;99.90;;;;;;5095964;28;20043;-82
2023/12/28 18:00:33;;;;;;;6.65;1.77;;;8.90;99.90;;;;;;5090205;28;20032;-82
2023/12/28 18:02:59;;;;;;;16.42;2.78;;;8.90;99.90;;;;;;5072404;28;20084;-80
2023/12/28 18:05:28;;;;;;;6.43;2.20;;;8.80;99.90;;;;;;5085772;28;20028;-80
2023/12/28 18:07:56;;;;;;;9.52;2.13;;;8.90;99.90;;;;;;5089940;28;20181;-83
2023/12/28 18:10:25;;;;;;;8.45;2.25;;;8.90;99.90;;;;;;5085268;28;20036;-81
2023/12/28 18:12:51;;;;;;;11.00;2.50;;;8.80;99.90;;;;;;5089497;28;20028;-81
2023/12/28 18:15:17;;;;;;;14.68;4.30;;;8.80;99.90;;;;;;5085370;28;20034;-78
2023/12/28 18:17:43;;;;;;;8.00;2.88;;;8.90;99.90;;;;;;5081696;28;20027;-79
2023/12/28 18:20:10;;;;;;;8.15;3.20;;;8.90;99.90;;;;;;5085489;28;20024;-80
2023/12/28 18:22:35;;;;;;;6.85;2.78;;;8.90;99.90;;;;;;5091679;28;20023;-79
2023/12/28 18:25:01;;;;;;;10.45;2.30;;;8.90;99.90;;;;;;5080549;28;20028;-78
2023/12/28 18:27:26;;;;;;;9.02;2.00;;;8.90;99.90;;;;;;5077318;28;20199;-79
2023/12/28 18:29:53;;;;;;;4.10;1.92;;;8.90;99.90;;;;;;5076490;28;20128;-84
2023/12/28 18:32:19;;;;;;;11.95;2.65;;;8.90;99.90;;;;;;5081684;28;20074;-78
2023/12/28 18:34:51;;;;;;;8.52;2.28;;;9.00;99.90;;;;;;5091067;28;20029;-81
2023/12/28 18:37:17;;;;;;;7.25;2.17;;;9.00;99.90;;;;;;5084154;28;20432;-78
2023/12/28 18:39:44;;;;;;;10.10;2.70;;;9.00;99.90;;;;;;5082733;28;20070;-78
2023/12/28 18:42:10;;;;;;;8.05;2.33;;;9.00;99.90;;;;;;5087699;28;20425;-78
2023/12/28 18:44:36;;;;;;;4.25;2.13;;;8.90;99.90;;;;;;5087441;28;20024;-78
2023/12/28 18:47:04;;;;;;;12.00;3.33;;;8.90;99.90;;;;;;5088918;28;20042;-79
2023/12/28 18:49:31;;;;;;;3.40;2.08;;;8.90;99.90;;;;;;5088617;28;20051;-80
2023/12/28 18:51:56;;;;;;;14.30;2.72;;;9.00;99.90;;;;;;5079904;28;20361;-80
2023/12/28 18:54:22;;;;;;;11.90;4.32;;;8.90;99.90;;;;;;5085671;28;20357;-78
2023/12/28 18:56:48;;;;;;;4.95;2.22;;;9.00;99.90;;;;;;5083845;28;20035;-82
2023/12/28 18:59:13;;;;;;;8.43;2.53;;;9.00;99.90;;;;;;5085055;28;20132;-81
2023/12/28 19:01:39;;;;;;;9.77;2.40;;;8.90;99.90;;;;;;5078282;28;20029;-79
2023/12/28 19:04:06;;;;;;;9.15;3.00;;;9.00;99.90;;;;;;5087774;28;20046;-82
2023/12/28 19:06:32;;;;;;;7.43;2.42;;;9.00;99.90;;;;;;5078798;28;20028;-78
2023/12/28 19:08:59;;;;;;;8.48;2.38;;;8.90;99.90;;;;;;5083305;28;20076;-78
2023/12/28 19:11:25;;;;;;;9.27;2.40;;;8.90;99.90;;;;;;5081856;28;20028;-80
2023/12/28 19:13:50;;;;;;;7.05;2.30;;;8.90;99.90;;;;;;5085561;28;20092;-78
2023/12/28 19:16:20;;;;;;;13.98;3.03;;;8.90;99.90;;;;;;5082819;28;20081;-79
2023/12/28 19:18:50;;;;;;;10.05;2.67;;;8.90;99.90;;;;;;5087151;28;20032;-80
2023/12/28 19:21:18;;;;;;;7.97;2.40;;;8.90;99.90;;;;;;5086248;28;20024;-80
2023/12/28 19:23:44;;;;;;;6.70;2.05;;;8.90;99.90;;;;;;5076300;28;20028;-79
2023/12/28 19:26:11;;;;;;;6.50;2.70;;;8.90;99.90;;;;;;5087815;28;20035;-82
2023/12/28 19:28:36;;;;;;;6.13;2.30;;;8.90;99.90;;;;;;5082471;28;20041;-81
2023/12/28 19:31:02;;;;;;;9.32;2.47;;;8.90;99.90;;;;;;5083001;28;20028;-78
2023/12/28 19:33:27;;;;;;;7.10;2.60;;;8.90;99.90;;;;;;5086436;28;20024;-80
2023/12/28 19:35:54;;;;;;;7.00;2.33;;;8.90;99.90;;;;;;5083755;28;20036;-78
2023/12/28 19:38:19;;;;;;;8.90;2.50;;;8.80;99.90;;;;;;5077985;28;20507;-83
2023/12/28 19:40:45;;;;;;;5.53;2.47;;;8.90;99.90;;;;;;5083622;28;20028;-81
2023/12/28 19:43:10;;;;;;;5.57;2.33;;;8.90;99.90;;;;;;5094661;28;20028;-79
2023/12/28 19:45:36;;;;;;;15.18;3.55;;;8.90;99.90;;;;;;5088568;28;20383;-78
2023/12/28 19:48:02;;;;;;;8.40;2.92;;;8.90;99.90;;;;;;5087877;28;20495;-80
2023/12/28 19:50:27;;;;;;;6.43;2.38;;;8.90;99.90;;;;;;5090153;28;20407;-78
2023/12/28 19:52:53;;;;;;;3.38;2.08;;;8.90;99.90;;;;;;5090760;28;20035;-80
2023/12/28 19:55:19;;;;;;;8.13;2.47;;;8.90;99.90;;;;;;5082651;28;20024;-80
2023/12/28 19:57:44;;;;;;;11.65;2.30;;;8.90;99.90;;;;;;5083500;28;20035;-79
2023/12/28 20:00:12;;;;;;;4.88;2.47;;;8.80;99.90;;;;;;5086251;28;20336;-80
2023/12/28 20:02:40;;;;;;;4.65;2.05;;;8.90;99.90;;;;;;5087808;28;20020;-86
2023/12/28 20:05:07;;;;;;;12.02;2.67;;;8.90;99.90;;;;;;5084379;28;20477;-80
2023/12/28 20:07:32;;;;;;;9.70;2.33;;;8.90;99.90;;;;;;5085006;28;20051;-78
2023/12/28 20:09:59;;;;;;;10.82;2.78;;;8.90;99.90;;;;;;5080737;28;20281;-79
2023/12/28 20:12:26;;;;;;;8.88;2.92;;;8.80;99.90;;;;;;5090471;28;20032;-84
2023/12/28 20:14:55;;;;;;;7.82;2.10;;;8.90;99.90;;;;;;5075081;28;20127;-84
2023/12/28 20:17:22;;;;;;;10.85;2.50;;;8.90;99.90;;;;;;5091995;28;20028;-82
2023/12/28 20:19:49;;;;;;;6.63;2.30;;;8.80;99.90;;;;;;5085454;28;20031;-85
2023/12/28 20:22:14;;;;;;;8.98;2.35;;;8.90;99.90;;;;;;5087530;28;20050;-79
2023/12/28 20:24:40;;;;;;;12.88;2.60;;;8.90;99.90;;;;;;5092819;28;20411;-79
2023/12/28 20:27:06;;;;;;;7.65;2.28;;;8.90;99.90;;;;;;5083135;28;20695;-81
2023/12/28 20:29:34;;;;;;;7.28;1.90;;;8.90;99.90;;;;;;5080140;28;20016;-88
2023/12/28 20:32:00;;;;;;;4.50;2.25;;;8.80;99.90;;;;;;5075366;28;20478;-80
2023/12/28 20:34:26;;;;;;;6.43;2.30;;;8.80;99.90;;;;;;5084848;28;20133;-79
2023/12/28 20:36:52;;;;;;;7.30;2.67;;;8.80;99.90;;;;;;5081996;28;20028;-83
2023/12/28 20:39:19;;;;;;;2.70;1.85;;;8.80;99.90;;;;;;5083706;28;20020;-82
2023/12/28 20:41:45;;;;;;;5.80;2.55;;;8.80;99.90;;;;;;5084019;28;20027;-84
2023/12/28 20:44:11;;;;;;;6.13;2.10;;;8.90;99.90;;;;;;5090243;28;20023;-80
2023/12/28 20:46:37;;;;;;;5.28;2.00;;;8.90;99.90;;;;;;5077471;28;20085;-82
2023/12/28 20:49:04;;;;;;;4.90;1.90;;;8.90;99.90;;;;;;5084270;28;20035;-83
2023/12/28 20:51:30;;;;;;;7.63;2.47;;;8.90;99.90;;;;;;5077371;28;20043;-84
2023/12/28 20:53:56;;;;;;;4.28;1.80;;;8.90;99.90;;;;;;5073221;28;20099;-83
2023/12/28 20:56:21;;;;;;;7.20;2.13;;;8.90;99.90;;;;;;5085268;28;20043;-79
2023/12/28 20:58:47;;;;;;;6.68;2.15;;;8.80;99.90;;;;;;5080586;28;20437;-78
2023/12/28 21:01:14;;;;;;;2.42;1.80;;;8.80;99.90;;;;;;5080171;28;20350;-79
2023/12/28 21:03:39;;;;;;;6.72;2.00;;;8.80;99.90;;;;;;5085026;28;20020;-78
2023/12/28 21:06:05;;;;;;;7.55;2.42;;;8.80;99.90;;;;;;5086761;28;20024;-83
2023/12/28 21:08:31;;;;;;;5.40;2.30;;;8.90;99.90;;;;;;5095738;28;20492;-89
2023/12/28 21:10:57;;;;;;;5.07;1.83;;;8.80;99.90;;;;;;5085431;28;20032;-79
2023/12/28 21:13:27;;;;;;;12.75;2.13;;;8.80;99.90;;;;;;5084759;28;20024;-79
2023/12/28 21:15:53;;;;;;;2.45;1.50;;;8.80;99.90;;;;;;5086474;28;20029;-79
2023/12/28 21:18:19;;;;;;;4.78;2.05;;;8.80;99.90;;;;;;5085571;28;20059;-84
2023/12/28 21:20:45;;;;;;;5.13;2.33;;;8.80;99.90;;;;;;5081651;28;20052;-78
2023/12/28 21:23:11;;;;;;;9.00;2.20;;;8.80;99.90;;;;;;5090833;28;20040;-80
2023/12/28 21:25:36;;;;;;;9.88;2.13;;;8.80;99.90;;;;;;5086504;28;20016;-79
2023/12/28 21:28:03;;;;;;;3.60;1.77;;;8.80;99.90;;;;;;5092074;28;20135;-80
2023/12/28 21:30:29;;;;;;;3.92;1.73;;;8.80;99.90;;;;;;5087636;28;20020;-79
2023/12/28 21:32:54;;;;;;;4.30;2.30;;;8.80;99.90;;;;;;5081999;28;20029;-79
2023/12/28 21:35:20;;;;;;;7.05;3.65;;;8.80;99.90;;;;;;5086420;28;20032;-81
2023/12/28 21:37:45;;;;;;;4.40;1.80;;;8.80;99.90;;;;;;5095135;28;20108;-80
2023/12/28 21:40:11;;;;;;;6.18;2.10;;;8.80;99.90;;;;;;5086982;28;20106;-78
2023/12/28 21:42:39;;;;;;;6.50;2.13;;;8.80;99.90;;;;;;5080924;28;20081;-78
2023/12/28 21:45:06;;;;;;;3.35;1.90;;;8.80;99.90;;;;;;5085498;28;20068;-80
2023/12/28 21:47:31;;;;;;;9.55;2.50;;;8.90;99.90;;;;;;5090580;28;20060;-79
2023/12/28 21:49:57;;;;;;;8.70;1.85;;;8.80;99.90;;;;;;5090485;28;20025;-78
2023/12/28 21:52:23;;;;;;;9.55;3.25;;;8.90;99.90;;;;;;5075815;28;20221;-79
2023/12/28 21:54:48;;;;;;;6.70;2.47;;;8.80;99.90;;;;;;5086302;28;20016;-81
2023/12/28 21:57:14;;;;;;;11.52;2.40;;;8.80;99.90;;;;;;5093947;28;20114;-80
2023/12/28 21:59:40;;;;;;;4.88;2.58;;;8.90;99.90;;;;;;5089050;28;20024;-84
2023/12/28 22:02:06;;;;;;;11.38;2.60;;;8.90;99.90;;;;;;5076287;28;20062;-85
2023/12/28 22:04:31;;;;;;;8.52;2.70;;;8.90;99.90;;;;;;5095129;28;20028;-78
2023/12/28 22:06:57;;;;;;;9.90;3.35;;;8.90;99.90;;;;;;5081449;28;20028;-79
2023/12/28 22:09:22;;;;;;;10.38;3.05;;;8.90;99.90;;;;;;5084344;28;20020;-80
2023/12/28 22:11:48;;;;;;;12.02;2.97;;;8.90;99.90;;;;;;5088203;28;20123;-80
2023/12/28 22:14:22;;;;;;;4.80;2.17;;;9.00;99.90;;;;;;5083340;28;20403;-84
2023/12/28 22:16:49;;;;;;;9.63;1.92;;;8.90;99.90;;;;;;5079747;28;20055;-82
2023/12/28 22:19:14;;;;;;;7.93;2.60;;;8.90;99.90;;;;;;5088230;28;20307;-76
2023/12/28 22:21:40;;;;;;;11.77;2.42;;;8.90;99.90;;;;;;5085185;27;20356;-79
2023/12/28 22:24:06;;;;;;;6.13;2.65;;;8.90;99.90;;;;;;5082864;28;20031;-80
2023/12/28 22:26:32;;;;;;;4.72;1.85;;;8.90;99.90;;;;;;5090359;28;20042;-79
2023/12/28 22:28:57;;;;;;;8.27;2.70;;;9.00;99.90;;;;;;5083095;28;20035;-80
2023/12/28 22:31:30;;;;;;;3.58;2.35;;;8.90;99.90;;;;;;5083043;28;21187;-85
2023/12/28 22:33:55;;;;;;;5.13;2.55;;;9.00;99.90;;;;;;5084190;28;20026;-81
2023/12/28 22:36:21;;;;;;;7.30;2.30;;;8.90;99.90;;;;;;5086002;28;20106;-84
2023/12/28 22:38:46;;;;;;;5.18;2.08;;;9.00;99.90;;;;;;5089392;28;20194;-82
2023/12/28 22:41:12;;;;;;;9.38;2.60;;;9.00;99.90;;;;;;5094472;28;20076;-79
2023/12/28 22:43:37;;;;;;;7.88;2.33;;;9.00;99.90;;;;;;5085256;28;20025;-79
2023/12/28 22:46:08;;;;;;;7.05;2.25;;;8.90;99.90;;;;;;5082561;28;20136;-84
2023/12/28 22:48:34;;;;;;;8.77;2.08;;;8.90;99.90;;;;;;5083041;28;20070;-82
2023/12/28 22:50:59;;;;;;;4.57;2.35;;;8.90;99.90;;;;;;5079839;28;20032;-79
2023/12/28 22:53:25;;;;;;;10.10;2.20;;;8.90;99.90;;;;;;5087386;28;20474;-80
2023/12/28 22:55:50;;;;;;;4.45;2.03;;;8.90;99.90;;;;;;5080270;28;20028;-81
2023/12/28 22:58:16;;;;;;;9.63;2.75;;;8.90;99.90;;;;;;5094914;28;20028;-81
2023/12/28 23:00:42;;;;;;;3.70;1.95;;;8.90;99.90;;;;;;5096476;28;20540;-78
2023/12/28 23:03:10;;;;;;;8.73;2.38;;;8.90;99.90;;;;;;5079203;28;20023;-80
2023/12/28 23:05:36;;;;;;;5.60;2.03;;;8.90;99.90;;;;;;5072584;28;20442;-81
2023/12/28 23:08:02;;;;;;;5.88;2.58;;;8.90;99.90;;;;;;5071849;28;20135;-79
2023/12/28 23:10:28;;;;;;;4.20;2.35;;;8.90;99.90;;;;;;5085528;28;20286;-79
2023/12/28 23:12:56;;;;;;;4.95;1.92;;;8.90;99.90;;;;;;5092701;28;20115;-78
2023/12/28 23:15:21;;;;;;;5.88;2.45;;;8.90;99.90;;;;;;5081089;28;20159;-79
2023/12/28 23:17:47;;;;;;;5.22;1.98;;;8.90;99.90;;;;;;5084842;28;20131;-79
2023/12/28 23:20:13;;;;;;;10.63;2.33;;;8.80;99.90;;;;;;5083232;28;20032;-80
2023/12/28 23:22:44;;;;;;;5.45;2.47;;;8.80;99.90;;;;;;5089773;28;20023;-81
2023/12/28 23:25:17;;;;;;;4.97;2.45;;;8.80;99.90;;;;;;5084539;28;21089;-79
2023/12/28 23:27:45;;;;;;;5.63;2.97;;;8.80;99.90;;;;;;5083442;28;20081;-77
2023/12/28 23:30:12;;;;;;;5.75;2.65;;;8.80;99.90;;;;;;5077480;28;20024;-80
2023/12/28 23:32:38;;;;;;;4.25;2.20;;;8.80;99.90;;;;;;5076494;28;20289;-79
2023/12/28 23:35:07;;;;;;;10.70;2.47;;;8.80;99.90;;;;;;5084491;28;20594;-86
2023/12/28 23:37:33;;;;;;;5.32;2.10;;;8.90;99.90;;;;;;5087883;28;20032;-82
2023/12/28 23:39:59;;;;;;;11.60;2.20;;;8.80;99.90;;;;;;5080151;28;20028;-85
2023/12/28 23:42:25;;;;;;;8.05;2.72;;;8.80;99.90;;;;;;5086886;28;20097;-82
2023/12/28 23:44:51;;;;;;;4.57;2.65;;;8.80;99.90;;;;;;5088054;28;20028;-82
2023/12/28 23:47:17;;;;;;;3.75;2.22;;;8.80;99.90;;;;;;5084712;28;20039;-78
2023/12/28 23:49:42;;;;;;;3.40;2.00;;;8.80;99.90;;;;;;5099332;28;20031;-81
2023/12/28 23:52:08;;;;;;;9.48;2.22;;;8.80;99.90;;;;;;5075450;28;20066;-82
2023/12/28 23:54:38;;;;;;;3.75;2.17;;;8.80;99.90;;;;;;5102299;28;20035;-85
2023/12/28 23:57:04;;;;;;;6.00;2.45;;;8.80;99.90;;;;;;5097210;27;20031;-85
2023/12/28 23:59:31;;;;;;;6.82;2.20;;;8.80;99.90;;;;;;5098920;28;20042;-79
